Time;durP1;ratioP1;P1;durP2;ratioP2;P2;SDS_P1;SDS_P2;PMS_P1;PMS_P2;Temp;Humidity;BMP_temperature;BMP_pressure;BME280_temperature;BME280_humidity;BME280_pressure;Samples;Min_cycle;Max_cycle;Signal;HPM_P1;HPM_P2
2023/08/15 00:01:42;;;;;;;7.50;6.18;;;;;;;22.81;70.89;95592.44;5006610;28;20256;-78
2023/08/15 00:04:08;;;;;;;5.78;5.13;;;;;;;22.82;70.67;95586.09;5023030;28;20266;-78
2023/08/15 00:06:33;;;;;;;6.68;5.97;;;;;;;22.78;70.58;95593.66;5019022;28;20239;-78
2023/08/15 00:09:00;;;;;;;7.40;5.30;;;;;;;22.69;71.31;95594.19;4999138;28;20285;-78
2023/08/15 00:11:25;;;;;;;6.13;5.53;;;;;;;22.74;70.75;95591.69;5017995;28;20180;-78
2023/08/15 00:13:55;;;;;;;6.35;5.75;;;;;;;22.73;70.81;95590.88;5018773;28;20187;-78
2023/08/15 00:16:20;;;;;;;7.05;5.50;;;;;;;22.78;70.26;95592.84;5022450;28;20198;-78
2023/08/15 00:18:45;;;;;;;9.80;5.35;;;;;;;22.73;69.83;95588.25;5027316;28;20193;-78
2023/08/15 00:21:12;;;;;;;5.63;5.13;;;;;;;22.82;69.18;95575.50;5024823;28;20278;-78
2023/08/15 00:23:37;;;;;;;7.93;5.30;;;;;;;22.86;69.24;95574.84;5014816;28;20208;-78
2023/08/15 00:26:02;;;;;;;8.55;5.53;;;;;;;22.86;69.17;95577.50;5020967;28;20179;-78
2023/08/15 00:28:27;;;;;;;7.28;4.80;;;;;;;22.85;69.39;95578.53;5025554;28;20180;-78
2023/08/15 00:30:53;;;;;;;6.68;5.45;;;;;;;22.78;69.91;95566.38;5005020;28;20187;-78
2023/08/15 00:33:18;;;;;;;7.78;5.82;;;;;;;22.74;69.90;95568.69;5000367;28;20263;-78
2023/08/15 00:35:43;;;;;;;5.57;5.00;;;;;;;22.68;70.25;95566.91;5008130;28;20292;-78
2023/08/15 00:38:09;;;;;;;7.07;5.53;;;;;;;22.62;70.62;95557.22;5024016;28;20207;-78
2023/08/15 00:40:34;;;;;;;6.75;6.07;;;;;;;22.58;70.65;95561.34;5007966;28;20599;-78
2023/08/15 00:42:59;;;;;;;10.23;6.05;;;;;;;22.50;70.93;95566.94;5023124;28;20679;-79
2023/08/15 00:45:25;;;;;;;6.63;5.03;;;;;;;22.52;70.95;95559.56;5025647;28;20221;-78
2023/08/15 00:47:50;;;;;;;5.78;5.20;;;;;;;22.48;71.01;95564.50;5023079;28;20210;-79
2023/08/15 00:50:16;;;;;;;6.50;5.18;;;;;;;22.41;71.42;95562.97;5018116;28;20306;-78
2023/08/15 00:52:42;;;;;;;7.53;5.60;;;;;;;22.41;71.42;95558.47;5021616;28;20700;-79
2023/08/15 00:55:07;;;;;;;7.05;5.30;;;;;;;22.42;71.06;95561.94;5030884;28;20247;-78
2023/08/15 00:57:33;;;;;;;7.82;5.60;;;;;;;22.42;71.18;95561.94;5021653;28;20203;-78
2023/08/15 00:59:58;;;;;;;5.88;5.05;;;;;;;22.24;72.10;95571.47;5026092;28;20198;-78
2023/08/15 01:02:23;;;;;;;6.82;5.30;;;;;;;22.42;71.41;95572.50;5009836;28;20191;-78
2023/08/15 01:04:49;;;;;;;6.10;5.60;;;;;;;22.44;71.70;95567.81;5026399;28;20281;-79
2023/08/15 01:07:17;;;;;;;10.27;5.68;;;;;;;22.42;71.89;95572.50;5019739;28;20197;-78
2023/08/15 01:09:43;;;;;;;7.82;5.20;;;;;;;22.42;71.65;95567.22;5016192;28;20194;-78
2023/08/15 01:12:22;;;;;;;6.72;6.05;;;;;;;22.42;71.48;95572.50;5022398;28;20179;-79
2023/08/15 01:15:03;;;;;;;8.65;5.63;;;;;;;22.43;71.64;95564.34;5021142;28;20194;-79
2023/08/15 01:17:35;;;;;;;6.68;5.15;;;;;;;22.45;71.12;95564.97;5008126;28;20206;-78
2023/08/15 01:20:06;;;;;;;8.63;5.55;;;;;;;22.36;71.12;95565.47;5027195;28;20189;-78
2023/08/15 01:22:35;;;;;;;6.00;5.45;;;;;;;22.40;70.93;95566.63;5025101;28;20191;-78
2023/08/15 01:25:00;;;;;;;6.70;5.53;;;;;;;22.43;70.75;95566.19;5020854;28;20636;-79
2023/08/15 01:27:25;;;;;;;6.32;5.60;;;;;;;22.44;70.36;95565.16;5018189;28;20222;-78
2023/08/15 01:29:51;;;;;;;6.22;5.55;;;;;;;22.46;70.37;95560.47;5020676;28;20207;-78
2023/08/15 01:32:34;;;;;;;5.32;4.82;;;;;;;22.46;70.23;95563.13;5017509;28;20283;-78
2023/08/15 01:35:22;;;;;;;8.02;5.32;;;;;;;22.43;70.44;95568.84;5027569;28;20269;-78
2023/08/15 01:37:52;;;;;;;5.63;5.13;;;;;;;22.47;69.98;95559.44;5023444;28;20210;-78
2023/08/15 01:40:19;;;;;;;6.10;5.50;;;;;;;22.42;70.27;95568.03;5022198;28;20230;-78
2023/08/15 01:42:44;;;;;;;5.05;4.55;;;;;;;22.47;69.96;95554.97;5003950;28;20179;-78
2023/08/15 01:45:10;;;;;;;6.93;5.57;;;;;;;22.43;70.19;95555.59;5023274;28;20185;-78
2023/08/15 01:47:36;;;;;;;6.18;5.50;;;;;;;22.44;70.30;95549.28;5000704;28;20286;-78
2023/08/15 01:50:01;;;;;;;6.65;5.32;;;;;;;22.47;69.99;95544.38;5017950;28;21210;-79
2023/08/15 01:52:27;;;;;;;5.75;4.97;;;;;;;22.52;69.92;95544.50;5024100;28;20838;-79
2023/08/15 01:54:52;;;;;;;6.03;5.43;;;;;;;22.54;69.18;95539.00;5007295;28;20191;-78
2023/08/15 01:57:17;;;;;;;5.70;5.20;;;;;;;22.59;69.00;95544.44;5013216;28;20289;-79
2023/08/15 01:59:43;;;;;;;6.75;5.35;;;;;;;22.60;68.75;95548.69;5022232;28;20591;-78
2023/08/15 02:02:10;;;;;;;10.50;4.97;;;;;;;22.64;68.57;95544.56;5030984;28;20205;-78
2023/08/15 02:04:35;;;;;;;6.43;5.10;;;;;;;22.68;68.41;95543.09;5019862;28;20741;-79
2023/08/15 02:07:00;;;;;;;7.13;4.45;;;;;;;22.70;68.00;95553.44;5015944;28;20190;-78
2023/08/15 02:09:26;;;;;;;5.40;4.90;;;;;;;22.73;68.30;95548.53;5018947;28;20645;-78
2023/08/15 02:11:52;;;;;;;5.43;4.93;;;;;;;22.76;68.00;95550.72;5023122;28;20202;-78
2023/08/15 02:14:18;;;;;;;6.88;5.13;;;;;;;22.77;67.88;95547.03;5019434;28;20186;-78
2023/08/15 02:16:43;;;;;;;5.90;4.95;;;;;;;22.82;68.00;95541.09;5012529;28;20679;-78
2023/08/15 02:19:08;;;;;;;5.65;4.78;;;;;;;22.83;68.16;95540.06;5014625;28;20182;-78
2023/08/15 02:21:33;;;;;;;5.47;5.03;;;;;;;22.81;68.54;95542.94;5024853;28;20183;-79
2023/08/15 02:23:59;;;;;;;5.55;5.05;;;;;;;22.79;68.56;95552.94;5019010;28;20191;-79
2023/08/15 02:26:24;;;;;;;7.03;4.70;;;;;;;22.77;69.56;95547.03;5011960;28;20201;-79
2023/08/15 02:28:52;;;;;;;5.07;4.57;;;;;;;22.79;69.46;95546.81;5020656;28;20193;-79
2023/08/15 02:31:17;;;;;;;5.47;4.97;;;;;;;22.82;69.33;95541.91;5014591;28;20710;-78
2023/08/15 02:33:42;;;;;;;6.57;5.28;;;;;;;22.79;69.88;95546.81;5021456;28;20191;-79
2023/08/15 02:36:08;;;;;;;5.38;4.88;;;;;;;22.80;69.81;95538.69;5024683;28;20262;-79
2023/08/15 02:38:34;;;;;;;5.43;4.63;;;;;;;22.82;69.99;95535.78;5023066;28;20187;-78
2023/08/15 02:40:59;;;;;;;8.20;5.80;;;;;;;22.85;69.56;95540.66;5021589;28;20621;-78
2023/08/15 02:43:24;;;;;;;5.82;5.18;;;;;;;22.85;69.50;95544.13;4998454;28;20186;-78
2023/08/15 02:45:50;;;;;;;6.25;5.50;;;;;;;22.83;69.61;95543.50;5023452;28;20198;-78
2023/08/15 02:48:15;;;;;;;6.93;5.30;;;;;;;22.84;69.87;95546.97;5017173;28;20290;-78
2023/08/15 02:50:41;;;;;;;6.50;5.85;;;;;;;22.74;70.51;95544.84;5020292;28;20185;-78
2023/08/15 02:53:07;;;;;;;5.78;5.10;;;;;;;22.74;70.83;95550.16;5025030;28;20215;-78
2023/08/15 02:55:32;;;;;;;5.57;4.97;;;;;;;22.69;71.05;95544.69;5021556;28;20186;-78
2023/08/15 02:57:58;;;;;;;6.72;5.65;;;;;;;22.76;70.55;95553.38;5022920;28;20207;-78
2023/08/15 03:00:23;;;;;;;5.38;4.82;;;;;;;22.71;71.09;95540.00;5017283;28;20829;-79
2023/08/15 03:02:49;;;;;;;6.38;5.78;;;;;;;22.76;70.74;95553.38;5024148;28;20207;-78
2023/08/15 03:05:14;;;;;;;11.65;5.63;;;;;;;22.72;71.00;95548.75;5010845;28;20568;-78
2023/08/15 03:07:39;;;;;;;9.45;5.38;;;;;;;22.73;71.12;95543.25;5015818;28;20452;-78
2023/08/15 03:10:05;;;;;;;5.93;5.35;;;;;;;22.77;71.33;95538.28;5027468;28;20178;-78
2023/08/15 03:12:30;;;;;;;7.00;5.35;;;;;;;22.77;71.22;95544.41;5021069;28;20722;-78
2023/08/15 03:14:57;;;;;;;5.95;5.30;;;;;;;22.75;71.48;95551.75;5021756;28;20187;-79
2023/08/15 03:17:23;;;;;;;7.88;5.88;;;;;;;22.70;71.94;95550.81;5011611;28;20206;-78
2023/08/15 03:19:48;;;;;;;6.30;5.65;;;;;;;22.68;72.16;95555.50;5007901;28;20217;-78
2023/08/15 03:22:13;;;;;;;5.65;5.10;;;;;;;22.66;71.77;95542.50;5012192;28;20240;-79
2023/08/15 03:24:39;;;;;;;5.93;5.40;;;;;;;22.63;71.88;95556.19;5013382;28;20266;-78
2023/08/15 03:27:04;;;;;;;7.28;5.30;;;;;;;22.64;72.00;95559.66;5021411;28;20286;-78
2023/08/15 03:29:29;;;;;;;6.28;5.68;;;;;;;22.59;72.43;95563.75;5024005;28;20240;-78
2023/08/15 03:31:57;;;;;;;6.88;5.53;;;;;;;22.55;72.75;95572.38;5020016;28;20233;-78
2023/08/15 03:34:23;;;;;;;9.05;5.93;;;;;;;22.54;73.00;95570.75;5014049;28;20174;-78
2023/08/15 03:36:48;;;;;;;7.10;5.40;;;;;;;22.52;72.67;95578.91;5022689;28;20703;-79
2023/08/15 03:39:13;;;;;;;6.25;5.65;;;;;;;22.50;72.58;95588.91;5012567;28;20190;-78
2023/08/15 03:41:39;;;;;;;9.27;5.78;;;;;;;22.48;72.34;95580.38;5015302;28;20229;-78
2023/08/15 03:44:04;;;;;;;7.15;5.50;;;;;;;22.49;71.42;95584.66;4998645;28;20206;-78
2023/08/15 03:46:30;;;;;;;14.80;5.80;;;;;;;22.50;71.07;95586.25;5018239;28;20241;-78
2023/08/15 03:48:55;;;;;;;8.45;5.70;;;;;;;22.46;70.76;95587.75;5020326;28;20661;-78
2023/08/15 03:51:20;;;;;;;9.65;5.85;;;;;;;22.48;70.39;95582.22;5009455;28;20187;-78
2023/08/15 03:53:46;;;;;;;7.97;5.57;;;;;;;22.48;69.87;95582.22;5033751;28;20186;-79
2023/08/15 03:56:11;;;;;;;6.63;5.93;;;;;;;22.52;69.79;95583.38;5016640;28;20206;-78
2023/08/15 03:58:36;;;;;;;6.43;5.22;;;;;;;22.49;69.77;95581.19;5023292;28;20195;-78
2023/08/15 04:01:02;;;;;;;8.00;5.55;;;;;;;22.40;70.18;95585.97;5020288;28;20178;-78
2023/08/15 04:03:27;;;;;;;6.28;5.05;;;;;;;22.39;70.21;95578.25;5008665;28;20185;-78
2023/08/15 04:05:52;;;;;;;7.82;5.60;;;;;;;22.33;70.60;95586.03;5020351;28;20199;-78
2023/08/15 04:08:18;;;;;;;6.80;5.10;;;;;;;22.28;70.81;95588.53;5023019;28;20272;-78
2023/08/15 04:10:47;;;;;;;10.68;6.03;;;;;;;22.20;71.44;95591.47;5026628;28;20539;-78
2023/08/15 04:13:12;;;;;;;8.45;5.97;;;;;;;22.19;71.54;95581.13;5026714;28;20191;-78
2023/08/15 04:15:38;;;;;;;10.00;6.18;;;;;;;22.15;72.09;95588.66;5023209;28;20994;-78
2023/08/15 04:18:04;;;;;;;7.18;5.40;;;;;;;22.12;72.06;95581.19;5005879;28;20217;-79
2023/08/15 04:20:30;;;;;;;7.15;6.20;;;;;;;22.05;72.50;95589.13;5025626;28;20183;-78
2023/08/15 04:22:55;;;;;;;8.70;6.63;;;;;;;22.04;73.30;95587.53;5019721;28;20194;-78
2023/08/15 04:25:21;;;;;;;6.90;6.20;;;;;;;22.01;72.98;95585.31;5020510;28;20198;-78
2023/08/15 04:27:46;;;;;;;7.90;6.43;;;;;;;22.01;74.03;95592.44;5026353;28;20203;-78
2023/08/15 04:30:11;;;;;;;8.30;6.10;;;;;;;22.03;74.29;95600.97;5031307;28;20187;-78
2023/08/15 04:32:37;;;;;;;7.90;6.38;;;;;;;22.03;74.19;95608.91;5026185;28;20237;-79
2023/08/15 04:35:03;;;;;;;9.27;6.10;;;;;;;22.02;74.11;95608.09;5024003;28;20570;-79
2023/08/15 04:37:28;;;;;;;7.18;6.00;;;;;;;21.98;75.19;95616.66;5013732;28;20203;-78
2023/08/15 04:39:54;;;;;;;7.47;6.72;;;;;;;22.06;75.01;95619.84;5021997;28;20202;-78
2023/08/15 04:42:20;;;;;;;9.20;6.95;;;;;;;22.12;74.87;95623.50;5026692;28;20553;-78
2023/08/15 04:44:45;;;;;;;11.68;7.03;;;;;;;22.21;74.98;95622.19;5026354;28;20241;-78
2023/08/15 04:47:11;;;;;;;12.88;6.88;;;;;;;22.27;75.08;95625.81;5024171;28;20224;-78
2023/08/15 04:49:36;;;;;;;11.60;6.38;;;;;;;22.31;75.38;95619.84;5024905;28;20233;-78
2023/08/15 04:52:01;;;;;;;7.32;6.15;;;;;;;22.39;74.82;95631.16;5025966;28;20205;-79
2023/08/15 04:54:27;;;;;;;7.45;6.75;;;;;;;22.48;74.98;95633.31;5015187;28;20187;-79
2023/08/15 04:56:52;;;;;;;10.60;6.68;;;;;;;22.52;74.41;95633.66;5005722;28;20203;-78
2023/08/15 04:59:18;;;;;;;9.70;6.97;;;;;;;22.62;74.64;95641.94;5015822;28;20189;-78
2023/08/15 05:01:44;;;;;;;7.65;6.45;;;;;;;22.66;74.60;95643.09;5018253;28;20272;-79
2023/08/15 05:04:09;;;;;;;9.60;6.78;;;;;;;22.68;75.06;95642.88;5022070;28;20263;-78
2023/08/15 05:06:34;;;;;;;8.02;6.40;;;;;;;22.80;75.03;95649.88;5018730;28;20214;-78
2023/08/15 05:09:00;;;;;;;10.50;6.53;;;;;;;22.91;74.32;95644.88;5025856;28;20175;-78
2023/08/15 05:11:25;;;;;;;8.75;6.88;;;;;;;23.03;74.43;95654.50;5008291;28;20196;-78
2023/08/15 05:13:50;;;;;;;12.75;6.82;;;;;;;23.33;73.49;95653.72;5024349;28;20190;-78
2023/08/15 05:16:15;;;;;;;6.90;6.22;;;;;;;23.51;72.64;95653.69;5017998;28;20199;-78
2023/08/15 05:18:41;;;;;;;7.65;6.45;;;;;;;23.61;71.88;95666.41;5021832;28;20779;-78
2023/08/15 05:21:07;;;;;;;9.05;6.15;;;;;;;23.78;71.50;95666.56;5014453;28;20179;-77
2023/08/15 05:23:32;;;;;;;8.77;6.20;;;;;;;23.93;71.04;95657.13;5017086;28;20189;-78
2023/08/15 05:25:57;;;;;;;11.68;6.70;;;;;;;24.07;70.74;95654.28;5020729;28;20206;-78
2023/08/15 05:28:23;;;;;;;8.80;6.43;;;;;;;24.19;70.42;95657.75;5011861;28;20286;-79
2023/08/15 05:30:48;;;;;;;7.65;5.97;;;;;;;24.36;70.42;95658.69;5030426;28;20257;-78
2023/08/15 05:33:13;;;;;;;9.98;6.75;;;;;;;24.40;69.77;95664.38;5013852;28;20174;-78
2023/08/15 05:35:39;;;;;;;10.40;6.35;;;;;;;24.54;69.23;95657.78;5027596;28;20182;-79
2023/08/15 05:38:04;;;;;;;9.02;6.82;;;;;;;24.64;69.79;95660.66;5004887;28;20714;-82
2023/08/15 05:40:30;;;;;;;9.88;6.20;;;;;;;24.77;69.17;95667.56;4999377;28;20194;-82
2023/08/15 05:43:04;;;;;;;8.05;6.40;;;;;;;25.02;68.35;95675.25;5020573;28;20937;-86
2023/08/15 05:45:29;;;;;;;7.82;6.30;;;;;;;25.14;68.05;95668.91;5009911;28;20186;-85
2023/08/15 05:47:55;;;;;;;9.75;6.75;;;;;;;25.28;67.97;95676.59;5026912;28;20569;-85
2023/08/15 05:50:20;;;;;;;7.65;6.80;;;;;;;25.41;67.20;95671.00;5015728;28;20194;-87
2023/08/15 05:52:47;;;;;;;7.80;6.28;;;;;;;25.63;66.34;95671.16;5011957;28;20183;-85
2023/08/15 05:55:12;;;;;;;6.72;5.90;;;;;;;25.64;65.73;95678.06;5015223;28;20197;-85
2023/08/15 05:57:37;;;;;;;10.20;6.80;;;;;;;25.65;65.50;95680.50;5014727;28;20209;-86
2023/08/15 06:00:05;;;;;;;7.63;6.50;;;;;;;25.81;64.73;95680.81;5026355;28;20201;-87
2023/08/15 06:02:34;;;;;;;7.50;5.75;;;;;;;25.96;64.11;95689.81;5014478;28;20179;-84
2023/08/15 06:05:07;;;;;;;7.90;5.82;;;;;;;26.13;63.91;95684.53;5016435;28;20204;-85
2023/08/15 06:07:32;;;;;;;6.50;5.90;;;;;;;26.03;63.44;95676.38;5031328;28;20316;-84
2023/08/15 06:09:57;;;;;;;6.82;5.10;;;;;;;25.88;63.77;95676.91;5032722;28;20260;-85
2023/08/15 06:12:25;;;;;;;9.60;5.82;;;;;;;25.91;64.28;95673.00;5016235;28;20194;-85
2023/08/15 06:15:03;;;;;;;8.10;6.15;;;;;;;25.91;64.12;95683.63;5013035;28;20186;-85
2023/08/15 06:17:28;;;;;;;6.78;5.95;;;;;;;26.05;63.01;95679.59;5009545;28;20206;-83
2023/08/15 06:20:44;;;;;;;;;;;;;;;;;;;;;
2023/08/15 06:27:43;;;;;;;;;;;;;;;;;;;;;
2023/08/15 06:30:09;;;;;;;8.20;5.95;;;;;;;25.70;62.29;95715.16;5032105;28;20190;-84
2023/08/15 06:32:34;;;;;;;9.10;6.18;;;;;;;26.04;62.29;95717.91;5027309;28;20606;-83
2023/08/15 06:35:00;;;;;;;7.38;6.00;;;;;;;26.60;59.79;95723.34;5026391;28;20274;-83
2023/08/15 06:37:26;;;;;;;8.82;6.43;;;;;;;26.90;58.70;95720.31;5011366;28;20234;-83
2023/08/15 06:39:51;;;;;;;11.52;6.65;;;;;;;28.03;56.21;95728.63;5025871;28;20225;-84
2023/08/15 06:42:16;;;;;;;10.18;6.50;;;;;;;29.02;53.64;95728.06;5021705;28;20526;-83
2023/08/15 06:44:43;;;;;;;9.57;6.15;;;;;;;29.93;49.13;95724.94;5022534;28;20202;-83
2023/08/15 06:47:08;;;;;;;7.88;6.13;;;;;;;31.24;47.00;95727.88;5004959;28;20218;-82
2023/08/15 06:49:33;;;;;;;9.07;5.85;;;;;;;29.91;49.76;95735.09;5021413;28;20664;-81
2023/08/15 06:51:59;;;;;;;7.65;5.75;;;;;;;28.96;52.00;95727.22;5012441;28;20232;-82
2023/08/15 06:54:24;;;;;;;9.45;5.63;;;;;;;28.71;52.41;95735.88;5011535;28;20186;-81
2023/08/15 06:56:49;;;;;;;9.02;6.20;;;;;;;27.92;54.67;95727.72;5024447;28;20221;-82
2023/08/15 06:59:15;;;;;;;6.72;6.03;;;;;;;27.76;55.45;95734.75;5012032;28;20213;-82
2023/08/15 07:01:40;;;;;;;10.00;6.95;;;;;;;28.02;54.44;95737.69;5010674;28;20191;-81
2023/08/15 07:04:06;;;;;;;9.55;6.63;;;;;;;28.09;53.96;95748.94;5008683;28;20206;-82
2023/08/15 07:06:32;;;;;;;9.30;6.05;;;;;;;27.91;55.33;95742.91;5005741;28;20448;-81
2023/08/15 07:08:57;;;;;;;10.95;6.93;;;;;;;27.43;56.34;95745.53;5013119;28;20190;-82
2023/08/15 07:11:22;;;;;;;10.10;6.40;;;;;;;26.93;58.51;95741.94;5031523;28;20670;-82
2023/08/15 07:13:48;;;;;;;9.52;7.15;;;;;;;26.44;59.96;95736.44;5022390;28;20190;-82
2023/08/15 07:16:13;;;;;;;11.13;7.10;;;;;;;26.45;60.19;95739.91;5017263;28;20306;-81
2023/08/15 07:18:38;;;;;;;10.32;7.05;;;;;;;26.24;61.50;95744.88;5018918;28;20217;-84
2023/08/15 07:21:04;;;;;;;9.98;8.20;;;;;;;26.04;62.64;95744.50;5021889;28;20798;-83
2023/08/15 07:23:30;;;;;;;7.75;7.03;;;;;;;26.08;62.28;95735.00;5039448;28;20277;-82
2023/08/15 07:25:56;;;;;;;8.82;7.32;;;;;;;25.97;64.12;95738.53;5014308;28;20226;-82
2023/08/15 07:28:21;;;;;;;7.88;7.03;;;;;;;25.62;64.98;95736.00;5010103;28;20582;-81
2023/08/15 07:30:48;;;;;;;8.18;6.78;;;;;;;25.81;65.12;95731.34;5013527;28;20187;-83
2023/08/15 07:33:13;;;;;;;10.43;7.30;;;;;;;25.89;65.51;95733.63;5013520;28;20256;-81
2023/08/15 07:35:39;;;;;;;8.60;6.30;;;;;;;26.36;63.78;95736.00;5015511;28;20665;-81
2023/08/15 07:38:04;;;;;;;8.73;6.38;;;;;;;26.45;63.40;95734.56;5015625;28;20746;-82
2023/08/15 07:40:30;;;;;;;10.27;6.28;;;;;;;26.58;63.32;95739.56;5006228;28;20193;-85
2023/08/15 07:42:55;;;;;;;9.18;6.68;;;;;;;26.39;65.34;95746.19;5012936;28;20190;-83
2023/08/15 07:45:21;;;;;;;10.15;7.40;;;;;;;26.56;63.90;95744.31;5011810;28;20185;-82
2023/08/15 07:47:51;;;;;;;8.40;6.90;;;;;;;26.82;63.22;95748.97;5020226;28;20205;-83
2023/08/15 07:50:27;;;;;;;9.20;6.85;;;;;;;26.51;64.20;95749.59;5032160;28;20191;-83
2023/08/15 07:52:53;;;;;;;8.15;6.50;;;;;;;26.66;63.56;95747.16;5013868;28;20194;-81
2023/08/15 07:55:19;;;;;;;8.32;7.53;;;;;;;26.58;64.48;95744.88;5005751;28;20179;-84
2023/08/15 07:57:45;;;;;;;7.88;7.05;;;;;;;26.93;62.76;95741.94;5012255;28;20211;-83
2023/08/15 08:00:14;;;;;;;9.68;7.18;;;;;;;27.02;63.93;95737.00;5019573;28;20191;-82
2023/08/15 08:02:44;;;;;;;8.90;7.18;;;;;;;27.41;62.45;95745.81;5029135;28;20786;-83
2023/08/15 08:05:09;;;;;;;8.93;7.25;;;;;;;27.74;62.05;95739.53;5021294;28;20278;-82
2023/08/15 08:07:36;;;;;;;9.18;6.97;;;;;;;27.71;60.89;95736.56;5020245;28;20222;-82
2023/08/15 08:10:01;;;;;;;14.25;6.40;;;;;;;27.75;59.48;95738.50;5009150;28;20266;-82
2023/08/15 08:12:30;;;;;;;10.30;6.78;;;;;;;27.65;59.35;95736.50;5012131;28;20219;-83
2023/08/15 08:14:55;;;;;;;8.38;6.53;;;;;;;27.72;59.94;95722.97;5016581;28;20179;-81
2023/08/15 08:17:21;;;;;;;7.68;6.78;;;;;;;27.49;61.14;95723.22;5019538;28;20224;-82
2023/08/15 08:19:46;;;;;;;8.48;6.80;;;;;;;27.25;62.04;95730.66;5022364;28;20274;-84
2023/08/15 08:22:12;;;;;;;9.95;7.30;;;;;;;27.09;63.00;95737.66;5022175;28;20665;-81
2023/08/15 08:24:37;;;;;;;11.05;7.20;;;;;;;27.15;61.84;95736.69;5024103;28;20197;-82
2023/08/15 08:27:04;;;;;;;7.22;6.20;;;;;;;27.38;60.86;95738.28;5012795;28;20310;-80
2023/08/15 08:29:29;;;;;;;7.75;7.00;;;;;;;27.18;62.22;95732.69;5032254;28;20683;-80
2023/08/15 08:31:55;;;;;;;8.05;6.85;;;;;;;27.19;62.71;95739.66;5011167;28;20233;-82
2023/08/15 08:34:21;;;;;;;8.20;7.40;;;;;;;27.23;62.67;95738.91;5004828;28;20210;-85
2023/08/15 08:36:46;;;;;;;10.20;6.57;;;;;;;27.37;62.21;95737.47;5031835;28;20779;-84
2023/08/15 08:39:11;;;;;;;8.48;7.03;;;;;;;27.54;62.35;95737.41;5024388;28;20222;-83
2023/08/15 08:41:37;;;;;;;8.60;6.72;;;;;;;27.49;62.88;95749.91;5021434;28;20237;-82
2023/08/15 08:44:03;;;;;;;8.93;7.47;;;;;;;27.38;63.39;95748.94;5023782;28;20262;-84
2023/08/15 08:46:29;;;;;;;7.60;6.90;;;;;;;27.42;62.80;95734.06;5027521;28;20704;-84
2023/08/15 08:48:59;;;;;;;11.60;7.30;;;;;;;27.44;62.36;95741.81;5033309;28;20201;-84
2023/08/15 08:51:25;;;;;;;9.48;6.55;;;;;;;27.25;63.77;95744.00;5018824;28;20191;-84
2023/08/15 08:53:51;;;;;;;11.02;7.20;;;;;;;27.42;61.93;95750.06;5020928;28;20195;-82
2023/08/15 08:56:24;;;;;;;7.72;7.03;;;;;;;27.19;63.13;95742.31;5022569;28;20214;-83
2023/08/15 08:58:58;;;;;;;8.80;7.50;;;;;;;26.93;63.80;95760.59;5043850;28;20618;-84
2023/08/15 09:01:23;;;;;;;8.35;7.53;;;;;;;26.95;63.93;95758.50;5015075;28;20232;-83
2023/08/15 09:03:49;;;;;;;7.88;6.97;;;;;;;27.22;63.35;95757.84;5023925;28;20182;-84
2023/08/15 09:06:14;;;;;;;7.65;6.85;;;;;;;27.29;62.18;95755.75;5006349;28;20210;-84
2023/08/15 09:08:40;;;;;;;11.18;7.40;;;;;;;27.33;62.60;95762.22;5003546;28;20273;-83
2023/08/15 09:11:05;;;;;;;12.65;7.40;;;;;;;27.48;60.63;95758.97;5029685;28;20652;-80
2023/08/15 09:13:30;;;;;;;7.68;6.97;;;;;;;27.38;59.95;95764.94;5002532;28;20743;-84
2023/08/15 09:15:56;;;;;;;9.75;6.95;;;;;;;27.07;60.53;95766.41;5005292;28;20190;-84
2023/08/15 09:18:22;;;;;;;7.47;6.00;;;;;;;27.47;58.44;95767.97;5010448;28;20715;-84
2023/08/15 09:20:48;;;;;;;7.20;5.82;;;;;;;27.44;58.36;95763.16;5014415;28;20182;-83
2023/08/15 09:23:15;;;;;;;7.57;5.80;;;;;;;27.23;59.40;95767.44;5005193;28;20181;-84
2023/08/15 09:25:40;;;;;;;8.95;5.75;;;;;;;27.38;58.01;95762.28;5021866;28;20191;-83
2023/08/15 09:28:05;;;;;;;8.07;5.75;;;;;;;27.84;55.48;95766.34;5015708;28;20554;-88
2023/08/15 09:30:31;;;;;;;5.80;5.30;;;;;;;28.06;55.59;95755.59;5014935;28;20563;-83
2023/08/15 09:32:56;;;;;;;5.55;4.80;;;;;;;28.67;53.29;95755.34;5017266;28;20269;-84
2023/08/15 09:35:22;;;;;;;6.00;4.70;;;;;;;28.69;53.08;95759.34;5013608;28;20274;-84
2023/08/15 09:37:49;;;;;;;8.20;4.68;;;;;;;28.90;50.66;95756.88;5013474;28;20210;-83
2023/08/15 09:40:16;;;;;;;6.68;4.95;;;;;;;28.78;49.57;95749.81;5023140;28;20191;-85
2023/08/15 09:42:43;;;;;;;10.65;5.03;;;;;;;28.78;47.50;95752.47;5014730;28;20190;-83
2023/08/15 09:45:09;;;;;;;8.43;4.53;;;;;;;29.03;47.04;95759.88;5013915;28;20182;-84
2023/08/15 09:47:37;;;;;;;8.50;4.68;;;;;;;28.69;48.03;95766.56;5018548;28;20201;-82
2023/08/15 09:50:04;;;;;;;5.85;4.40;;;;;;;28.43;47.88;95769.03;5016764;28;20191;-84
2023/08/15 09:52:30;;;;;;;6.28;4.35;;;;;;;28.07;47.82;95777.75;5028894;28;20202;-84
2023/08/15 09:54:55;;;;;;;6.30;4.30;;;;;;;27.96;48.74;95781.38;5012406;28;20559;-83
2023/08/15 09:57:21;;;;;;;8.75;4.43;;;;;;;27.91;49.17;95780.25;5023298;28;20211;-85
2023/08/15 09:59:46;;;;;;;7.13;4.55;;;;;;;27.80;49.86;95775.88;5022493;28;20190;-83
2023/08/15 10:02:22;;;;;;;8.55;4.70;;;;;;;27.94;50.70;95781.66;5025527;28;20623;-83
2023/08/15 10:04:56;;;;;;;5.55;4.40;;;;;;;27.91;50.89;95780.25;5027009;28;20191;-84
2023/08/15 10:07:23;;;;;;;7.88;4.85;;;;;;;28.10;50.69;95791.44;5011281;28;20199;-83
2023/08/15 10:09:49;;;;;;;7.43;4.53;;;;;;;27.83;51.43;95802.09;5007554;28;20194;-84
2023/08/15 10:12:14;;;;;;;5.20;4.68;;;;;;;28.19;51.11;95813.13;5024346;28;20195;-83
2023/08/15 10:14:40;;;;;;;6.05;4.40;;;;;;;28.46;49.89;95813.97;5016627;28;20197;-83
2023/08/15 10:17:06;;;;;;;8.25;4.13;;;;;;;28.41;49.99;95821.09;5014075;28;20206;-82
2023/08/15 10:19:32;;;;;;;10.05;4.82;;;;;;;28.36;49.60;95819.22;5005994;28;20222;-82
2023/08/15 10:21:57;;;;;;;5.88;4.07;;;;;;;28.56;49.64;95813.25;5005662;28;20190;-84
2023/08/15 10:24:22;;;;;;;5.68;4.22;;;;;;;28.70;51.21;95825.09;5004627;28;20216;-82
2023/08/15 10:26:51;;;;;;;6.82;4.68;;;;;;;28.58;50.43;95829.00;5013583;28;20563;-83
2023/08/15 10:29:16;;;;;;;5.65;5.03;;;;;;;28.77;50.49;95832.91;5027890;28;20202;-82
2023/08/15 10:31:42;;;;;;;5.43;4.90;;;;;;;29.01;50.08;95828.03;5000694;28;20187;-82
2023/08/15 10:34:09;;;;;;;9.10;5.65;;;;;;;29.09;51.27;95834.78;5008262;28;20296;-83
2023/08/15 10:36:35;;;;;;;7.28;5.47;;;;;;;29.41;50.91;95838.19;5007650;28;20232;-84
2023/08/15 10:39:05;;;;;;;7.47;5.45;;;;;;;29.82;50.52;95846.44;5030338;28;20199;-82
2023/08/15 10:41:31;;;;;;;5.90;5.00;;;;;;;29.74;47.44;95837.03;5023873;28;20277;-81
2023/08/15 10:44:02;;;;;;;14.43;5.68;;;;;;;29.63;47.09;95832.72;5009605;28;20274;-84
2023/08/15 10:46:29;;;;;;;6.60;4.82;;;;;;;30.00;46.29;95829.91;5018011;28;20214;-85
2023/08/15 10:48:59;;;;;;;6.20;4.50;;;;;;;30.23;45.88;95828.66;5027849;28;20604;-82
2023/08/15 10:51:26;;;;;;;6.20;4.90;;;;;;;30.17;46.07;95827.03;5009041;28;20179;-84
2023/08/15 10:53:57;;;;;;;7.90;4.50;;;;;;;30.60;45.64;95830.31;5012945;28;20210;-84
2023/08/15 10:56:25;;;;;;;6.82;4.60;;;;;;;30.67;43.89;95830.91;5022427;28;20207;-84
2023/08/15 10:58:51;;;;;;;6.65;4.28;;;;;;;30.83;42.82;95834.38;5004866;28;20213;-82
2023/08/15 11:01:18;;;;;;;5.18;4.50;;;;;;;31.02;43.47;95835.44;5027471;28;20214;-82
2023/08/15 11:03:46;;;;;;;6.40;4.03;;;;;;;30.94;40.27;95827.94;5020655;28;20210;-84
2023/08/15 11:06:12;;;;;;;4.78;3.67;;;;;;;30.56;41.02;95826.56;5014835;28;20198;-83
2023/08/15 11:08:46;;;;;;;5.65;3.67;;;;;;;31.05;41.07;95821.50;5021658;28;20182;-83
2023/08/15 11:11:12;;;;;;;6.43;4.13;;;;;;;31.13;40.76;95828.19;5025613;28;20224;-83
2023/08/15 11:13:44;;;;;;;5.85;4.18;;;;;;;31.05;42.30;95834.91;5008650;28;20187;-84
2023/08/15 11:16:10;;;;;;;6.07;4.10;;;;;;;31.05;42.61;95840.25;5021933;28;20202;-84
2023/08/15 11:18:36;;;;;;;8.13;3.97;;;;;;;30.84;42.21;95833.31;5017851;28;20731;-85
2023/08/15 11:21:02;;;;;;;4.47;3.15;;;;;;;30.09;41.18;95831.03;5009636;28;20189;-85
2023/08/15 11:23:28;;;;;;;7.22;3.72;;;;;;;29.89;41.83;95828.28;5011360;28;20186;-82
2023/08/15 11:26:00;;;;;;;4.15;3.50;;;;;;;30.02;40.95;95821.59;5016429;28;20194;-86
2023/08/15 11:28:26;;;;;;;7.82;4.00;;;;;;;30.03;40.93;95829.38;5025150;28;20196;-82
2023/08/15 11:30:51;;;;;;;5.45;3.80;;;;;;;29.45;41.02;95825.09;5009937;28;20182;-78
2023/08/15 11:33:17;;;;;;;10.10;4.03;;;;;;;29.66;41.64;95831.38;5022860;28;20187;-80
2023/08/15 11:35:42;;;;;;;6.18;3.75;;;;;;;29.87;42.04;95833.09;5008280;28;20584;-81